createdAt,value
2022-10-24T00:00:10.000Z,0
2022-10-24T00:01:26.000Z,0
2022-10-24T00:02:42.000Z,0
2022-10-24T00:03:58.000Z,0
2022-10-24T00:05:15.000Z,0
2022-10-24T00:06:31.000Z,0
2022-10-24T00:07:47.000Z,0
2022-10-24T00:09:02.000Z,0
2022-10-24T00:10:18.000Z,0
2022-10-24T00:11:35.000Z,0
2022-10-24T00:12:51.000Z,0
2022-10-24T00:14:07.000Z,0
2022-10-24T00:15:23.000Z,0
2022-10-24T00:16:39.000Z,0
2022-10-24T00:17:55.000Z,0
2022-10-24T00:19:12.000Z,0
2022-10-24T00:20:28.000Z,0
2022-10-24T00:21:44.000Z,0
2022-10-24T00:23:00.000Z,0
2022-10-24T00:24:16.000Z,0
2022-10-24T00:25:32.000Z,0
2022-10-24T00:26:48.000Z,0
2022-10-24T00:28:04.000Z,0
2022-10-24T00:29:20.000Z,0
2022-10-24T00:30:36.000Z,0
2022-10-24T00:31:53.000Z,0
2022-10-24T00:33:09.000Z,0
2022-10-24T00:34:25.000Z,0
2022-10-24T00:35:41.000Z,0
2022-10-24T00:36:57.000Z,0
2022-10-24T00:38:13.000Z,0
2022-10-24T00:39:30.000Z,0
2022-10-24T00:40:46.000Z,0
2022-10-24T00:42:01.000Z,0
2022-10-24T00:43:17.000Z,0
2022-10-24T00:44:33.000Z,0
2022-10-24T00:45:50.000Z,0
2022-10-24T00:47:06.000Z,0
2022-10-24T00:48:22.000Z,0
2022-10-24T00:49:38.000Z,0
2022-10-24T00:50:54.000Z,0
2022-10-24T00:52:11.000Z,0
2022-10-24T00:53:27.000Z,0
2022-10-24T00:54:43.000Z,0
2022-10-24T00:55:59.000Z,0
2022-10-24T00:57:15.000Z,0
2022-10-24T00:58:30.000Z,0
2022-10-24T00:59:47.000Z,0
2022-10-24T01:01:03.000Z,0
2022-10-24T01:02:19.000Z,0
2022-10-24T01:03:35.000Z,0
2022-10-24T01:04:51.000Z,0
2022-10-24T01:06:08.000Z,0
2022-10-24T01:07:24.000Z,0
2022-10-24T01:08:40.000Z,0
2022-10-24T01:09:56.000Z,0
2022-10-24T01:11:12.000Z,0
2022-10-24T01:12:29.000Z,0
2022-10-24T01:13:45.000Z,0
2022-10-24T01:15:00.000Z,0
2022-10-24T01:16:16.000Z,0
2022-10-24T01:17:32.000Z,0
2022-10-24T01:18:49.000Z,0
2022-10-24T01:20:05.000Z,0
2022-10-24T01:21:21.349Z,0
2022-10-24T01:22:37.000Z,0
2022-10-24T01:23:53.000Z,0
2022-10-24T01:25:09.000Z,0
2022-10-24T01:26:26.000Z,0
2022-10-24T01:27:42.000Z,0
2022-10-24T01:28:58.000Z,0
2022-10-24T01:30:14.000Z,0
2022-10-24T01:31:29.000Z,0
2022-10-24T01:32:46.000Z,0
2022-10-24T01:34:02.000Z,0
2022-10-24T01:35:18.000Z,0
2022-10-24T01:36:34.000Z,0
2022-10-24T01:37:50.000Z,0
2022-10-24T01:39:07.000Z,0
2022-10-24T01:40:23.000Z,0
2022-10-24T01:41:39.000Z,0
2022-10-24T01:42:55.000Z,0
2022-10-24T01:44:11.000Z,0
2022-10-24T01:45:27.000Z,0
2022-10-24T01:46:44.000Z,0
2022-10-24T01:48:00.000Z,0
2022-10-24T01:49:16.000Z,0
2022-10-24T01:50:32.000Z,0
2022-10-24T01:51:49.000Z,0
2022-10-24T01:53:05.000Z,0
2022-10-24T01:54:21.000Z,0
2022-10-24T01:55:37.000Z,0
2022-10-24T01:56:53.000Z,0
2022-10-24T01:58:09.000Z,0
2022-10-24T01:59:26.000Z,0
2022-10-24T02:00:42.000Z,0
2022-10-24T02:01:58.000Z,0
2022-10-24T02:03:14.000Z,0
2022-10-24T02:04:29.000Z,0
2022-10-24T02:05:46.000Z,0
2022-10-24T02:07:02.000Z,0
2022-10-24T02:08:18.000Z,0
2022-10-24T02:09:34.000Z,0
2022-10-24T02:10:50.000Z,0
2022-10-24T02:12:07.000Z,0
2022-10-24T02:13:23.000Z,0
2022-10-24T02:14:39.631Z,0
2022-10-24T02:15:55.000Z,0
2022-10-24T02:17:11.000Z,0
2022-10-24T02:18:27.000Z,0
2022-10-24T02:19:44.000Z,0
2022-10-24T02:20:59.000Z,0
2022-10-24T02:22:15.000Z,0
2022-10-24T02:23:31.000Z,0
2022-10-24T02:24:47.000Z,0
2022-10-24T02:26:04.000Z,0
2022-10-24T02:27:20.000Z,0
2022-10-24T02:28:36.000Z,0
2022-10-24T02:29:52.000Z,0
2022-10-24T02:31:08.000Z,0
2022-10-24T02:32:25.000Z,0
2022-10-24T02:33:41.000Z,0
2022-10-24T02:34:57.000Z,0
2022-10-24T02:36:13.000Z,0
2022-10-24T02:37:28.000Z,0
2022-10-24T02:38:44.000Z,0
2022-10-24T02:40:01.000Z,0
2022-10-24T02:41:17.000Z,0
2022-10-24T02:42:33.000Z,0
2022-10-24T02:43:49.000Z,0
2022-10-24T02:45:05.000Z,0
2022-10-24T02:46:22.000Z,0
2022-10-24T02:47:38.000Z,0
2022-10-24T02:48:54.000Z,0
2022-10-24T02:50:10.000Z,0
2022-10-24T02:51:26.000Z,0
2022-10-24T02:52:43.000Z,0
2022-10-24T02:53:59.000Z,0
2022-10-24T02:55:14.000Z,0
2022-10-24T02:56:30.000Z,0
2022-10-24T02:57:46.000Z,0
2022-10-24T02:59:03.000Z,0
2022-10-24T03:00:19.000Z,0
2022-10-24T03:01:35.000Z,0
2022-10-24T03:02:51.000Z,0
2022-10-24T03:04:07.000Z,0
2022-10-24T03:05:23.000Z,0
2022-10-24T03:06:40.000Z,0
2022-10-24T03:07:56.000Z,0
2022-10-24T03:09:12.000Z,0
2022-10-24T03:10:28.000Z,0
2022-10-24T03:11:43.000Z,0
2022-10-24T03:13:00.000Z,0
2022-10-24T03:14:16.000Z,0
2022-10-24T03:15:32.000Z,0
2022-10-24T03:16:48.000Z,0
2022-10-24T03:18:04.000Z,0
2022-10-24T03:19:21.000Z,0
2022-10-24T03:20:37.000Z,0
2022-10-24T03:21:53.000Z,0
2022-10-24T03:23:09.000Z,0
2022-10-24T03:24:25.000Z,0
2022-10-24T03:25:41.000Z,0
2022-10-24T03:26:58.000Z,0
2022-10-24T03:28:13.000Z,0
2022-10-24T03:29:29.000Z,0
2022-10-24T03:30:45.000Z,0
2022-10-24T03:32:01.000Z,0
2022-10-24T03:33:18.000Z,0
2022-10-24T03:34:34.000Z,0
2022-10-24T03:35:50.000Z,0
2022-10-24T03:37:06.000Z,0
2022-10-24T03:38:22.000Z,0
2022-10-24T03:39:39.000Z,0
2022-10-24T03:40:55.000Z,0
2022-10-24T03:42:11.000Z,0
2022-10-24T03:43:27.000Z,0
2022-10-24T03:44:42.000Z,0
2022-10-24T03:45:58.000Z,0
2022-10-24T03:47:15.000Z,0
2022-10-24T03:48:31.000Z,0
2022-10-24T03:49:47.000Z,0
2022-10-24T03:51:02.000Z,0
2022-10-24T03:52:18.000Z,0
2022-10-24T03:53:35.000Z,0
2022-10-24T03:54:51.000Z,0
2022-10-24T03:56:07.000Z,0
2022-10-24T03:57:23.000Z,0
2022-10-24T03:58:39.000Z,0
2022-10-24T03:59:56.000Z,0
2022-10-24T04:01:12.533Z,0
2022-10-24T04:02:28.000Z,0
2022-10-24T04:03:44.000Z,0
2022-10-24T04:05:00.000Z,0
2022-10-24T04:06:16.000Z,0
2022-10-24T04:07:32.000Z,0
2022-10-24T04:08:48.000Z,0
2022-10-24T04:10:04.000Z,0
2022-10-24T04:11:20.000Z,0
2022-10-24T04:12:36.000Z,0
2022-10-24T04:13:53.000Z,0
2022-10-24T04:15:09.000Z,0
2022-10-24T04:16:25.000Z,0
2022-10-24T04:17:41.000Z,0
2022-10-24T04:18:57.000Z,0
2022-10-24T04:20:14.000Z,0
2022-10-24T04:21:30.000Z,0
2022-10-24T04:22:46.000Z,0
2022-10-24T04:24:01.000Z,0
2022-10-24T04:25:17.000Z,0
2022-10-24T04:26:34.000Z,0
2022-10-24T04:27:50.000Z,0
2022-10-24T04:29:06.000Z,0
2022-10-24T04:30:22.000Z,0
2022-10-24T04:31:38.000Z,0
2022-10-24T04:32:54.000Z,0
2022-10-24T04:34:11.000Z,0
2022-10-24T04:35:27.000Z,0
2022-10-24T04:36:43.000Z,0
2022-10-24T04:37:59.000Z,0
2022-10-24T04:39:15.000Z,0
2022-10-24T04:40:31.000Z,0
2022-10-24T04:41:47.000Z,0
2022-10-24T04:43:03.000Z,0
2022-10-24T04:44:19.000Z,0
2022-10-24T04:45:35.000Z,0
2022-10-24T04:46:52.000Z,0
2022-10-24T04:48:08.000Z,0
2022-10-24T04:49:24.000Z,0
2022-10-24T04:50:40.000Z,0
2022-10-24T04:51:56.000Z,0
2022-10-24T04:53:12.000Z,0
2022-10-24T04:54:29.000Z,0
2022-10-24T04:55:45.000Z,0
2022-10-24T04:57:00.000Z,0
2022-10-24T04:58:16.000Z,0
2022-10-24T04:59:32.000Z,0
2022-10-24T05:00:49.000Z,0
2022-10-24T05:02:05.000Z,0
2022-10-24T05:03:21.000Z,0
2022-10-24T05:04:37.000Z,0
2022-10-24T05:05:53.000Z,0
2022-10-24T05:07:10.000Z,0
2022-10-24T05:08:26.000Z,0
2022-10-24T05:09:42.000Z,0
2022-10-24T05:10:58.000Z,0
2022-10-24T05:12:14.000Z,0
2022-10-24T05:13:30.000Z,0
2022-10-24T05:14:46.000Z,0
2022-10-24T05:16:02.000Z,0
2022-10-24T05:17:18.000Z,0
2022-10-24T05:18:34.000Z,0
2022-10-24T05:19:50.000Z,0
2022-10-24T05:21:07.000Z,0
2022-10-24T05:22:23.000Z,0
2022-10-24T05:23:39.000Z,0
2022-10-24T05:24:55.000Z,0
2022-10-24T05:26:11.000Z,0
2022-10-24T05:27:28.000Z,0
2022-10-24T05:28:44.473Z,0
2022-10-24T05:29:59.000Z,0
2022-10-24T05:31:15.000Z,0
2022-10-24T05:32:31.000Z,0
2022-10-24T05:33:48.000Z,0
2022-10-24T05:35:04.000Z,0
2022-10-24T05:36:20.000Z,0
2022-10-24T05:37:36.000Z,0
2022-10-24T05:38:52.000Z,0
2022-10-24T05:40:08.000Z,4
2022-10-24T05:41:25.000Z,4
2022-10-24T05:42:41.000Z,4
2022-10-24T05:43:57.000Z,4
2022-10-24T05:45:13.000Z,8
2022-10-24T05:46:28.000Z,8
2022-10-24T05:47:45.000Z,8
2022-10-24T05:49:01.000Z,12
2022-10-24T05:50:17.000Z,16
2022-10-24T05:51:33.000Z,16
2022-10-24T05:52:49.000Z,20
2022-10-24T05:54:06.000Z,24
2022-10-24T05:55:22.000Z,28
2022-10-24T05:56:38.000Z,28
2022-10-24T05:57:54.000Z,32
2022-10-24T05:59:10.000Z,40
2022-10-24T06:00:26.000Z,52
2022-10-24T06:01:43.000Z,64
2022-10-24T06:02:58.000Z,76
2022-10-24T06:04:14.000Z,88
2022-10-24T06:05:30.000Z,100
2022-10-24T06:06:46.000Z,104
2022-10-24T06:08:03.000Z,116
2022-10-24T06:09:19.000Z,120
2022-10-24T06:10:35.000Z,148
2022-10-24T06:11:51.000Z,164
2022-10-24T06:13:07.000Z,188
2022-10-24T06:14:24.000Z,208
2022-10-24T06:15:40.000Z,232
2022-10-24T06:16:56.000Z,256
2022-10-24T06:18:12.000Z,280
2022-10-24T06:19:27.000Z,316
2022-10-24T06:20:43.000Z,340
2022-10-24T06:22:00.000Z,368
2022-10-24T06:23:16.000Z,404
2022-10-24T06:24:32.000Z,424
2022-10-24T06:25:48.000Z,444
2022-10-24T06:27:04.000Z,496
2022-10-24T06:28:21.000Z,544
2022-10-24T06:29:37.000Z,596
2022-10-24T06:30:53.000Z,620
2022-10-24T06:32:09.000Z,612
2022-10-24T06:33:25.000Z,628
2022-10-24T06:34:42.000Z,668
2022-10-24T06:35:57.000Z,716
2022-10-24T06:37:13.000Z,816
2022-10-24T06:38:29.000Z,816
2022-10-24T06:39:45.000Z,828
2022-10-24T06:41:02.000Z,872
2022-10-24T06:42:18.000Z,968
2022-10-24T06:43:34.000Z,1044
2022-10-24T06:44:50.000Z,1100
2022-10-24T06:46:06.000Z,1216
2022-10-24T06:47:23.167Z,1336
2022-10-24T06:48:39.000Z,1340
2022-10-24T06:49:55.000Z,1376
2022-10-24T06:51:11.000Z,1452
2022-10-24T06:52:26.000Z,1532
2022-10-24T06:53:42.000Z,1616
2022-10-24T06:54:59.000Z,1740
2022-10-24T06:56:15.000Z,1940
2022-10-24T06:57:31.436Z,1948
2022-10-24T06:58:47.000Z,1992
2022-10-24T07:00:03.000Z,2260
2022-10-24T07:01:20.000Z,2096
2022-10-24T07:02:36.000Z,1832
2022-10-24T07:03:52.000Z,1932
2022-10-24T07:05:08.000Z,2016
2022-10-24T07:06:24.000Z,2020
2022-10-24T07:07:40.000Z,1936
2022-10-24T07:08:56.000Z,1832
2022-10-24T07:10:12.000Z,2020
2022-10-24T07:11:28.000Z,2044
2022-10-24T07:12:44.000Z,1764
2022-10-24T07:14:00.000Z,1536
2022-10-24T07:15:17.315Z,1512
2022-10-24T07:16:33.000Z,1492
2022-10-24T07:17:49.000Z,1592
2022-10-24T07:19:05.000Z,1780
2022-10-24T07:20:21.000Z,1872
2022-10-24T07:21:38.000Z,1920
2022-10-24T07:22:54.000Z,1872
2022-10-24T07:24:10.000Z,1932
2022-10-24T07:25:25.000Z,2088
2022-10-24T07:26:41.000Z,2128
2022-10-24T07:27:57.000Z,2112
2022-10-24T07:29:14.000Z,2324
2022-10-24T07:30:30.000Z,2284
2022-10-24T07:31:46.000Z,2296
2022-10-24T07:33:02.000Z,2492
2022-10-24T07:34:18.000Z,2644
2022-10-24T07:35:35.000Z,2676
2022-10-24T07:36:51.000Z,2756
2022-10-24T07:38:07.000Z,2760
2022-10-24T07:39:23.000Z,2744
2022-10-24T07:40:39.000Z,2688
2022-10-24T07:41:55.000Z,2608
2022-10-24T07:43:11.000Z,2536
2022-10-24T07:44:27.000Z,2516
2022-10-24T07:45:43.000Z,2472
2022-10-24T07:46:59.000Z,2476
2022-10-24T07:48:15.000Z,2560
2022-10-24T07:49:32.000Z,2664
2022-10-24T07:50:48.000Z,2672
2022-10-24T07:52:04.000Z,2764
2022-10-24T07:53:20.000Z,2776
2022-10-24T07:54:36.000Z,2672
2022-10-24T07:55:53.000Z,2668
2022-10-24T07:57:09.000Z,2628
2022-10-24T07:58:24.000Z,2576
2022-10-24T07:59:40.000Z,2584
2022-10-24T08:00:56.000Z,2576
2022-10-24T08:02:13.000Z,2628
2022-10-24T08:03:29.000Z,2544
2022-10-24T08:04:45.000Z,2516
2022-10-24T08:06:00.000Z,2484
2022-10-24T08:07:16.000Z,2436
2022-10-24T08:08:33.000Z,2548
2022-10-24T08:09:49.000Z,2556
2022-10-24T08:11:05.000Z,2692
2022-10-24T08:12:21.000Z,3172
2022-10-24T08:13:37.000Z,4188
2022-10-24T08:14:53.000Z,3040
2022-10-24T08:16:10.000Z,2996
2022-10-24T08:17:26.000Z,3008
2022-10-24T08:18:42.000Z,3220
2022-10-24T08:19:58.000Z,3300
2022-10-24T08:21:14.000Z,3244
2022-10-24T08:22:30.000Z,3240
2022-10-24T08:23:46.000Z,3340
2022-10-24T08:25:02.000Z,3244
2022-10-24T08:26:18.000Z,3408
2022-10-24T08:27:34.000Z,3912
2022-10-24T08:28:51.000Z,4128
2022-10-24T08:30:07.000Z,4588
2022-10-24T08:31:23.000Z,5264
2022-10-24T08:32:39.000Z,4272
2022-10-24T08:33:55.000Z,4676
2022-10-24T08:35:12.000Z,3980
2022-10-24T08:36:28.000Z,3784
2022-10-24T08:37:44.000Z,3828
2022-10-24T08:38:59.000Z,4420
2022-10-24T08:40:15.000Z,5544
2022-10-24T08:41:31.000Z,6076
2022-10-24T08:42:48.000Z,5860
2022-10-24T08:44:04.000Z,4528
2022-10-24T08:45:20.000Z,3864
2022-10-24T08:46:36.000Z,3432
2022-10-24T08:47:52.000Z,3404
2022-10-24T08:49:09.000Z,3764
2022-10-24T08:50:25.000Z,4212
2022-10-24T08:51:41.000Z,4692
2022-10-24T08:52:57.000Z,4684
2022-10-24T08:54:13.000Z,3860
2022-10-24T08:55:29.000Z,3140
2022-10-24T08:56:45.000Z,3268
2022-10-24T08:58:01.000Z,3056
2022-10-24T08:59:17.000Z,3104
2022-10-24T09:00:33.000Z,3972
2022-10-24T09:01:49.000Z,3960
2022-10-24T09:03:06.000Z,3860
2022-10-24T09:04:22.000Z,4268
2022-10-24T09:05:38.000Z,4716
2022-10-24T09:06:54.000Z,4720
2022-10-24T09:08:10.000Z,4232
2022-10-24T09:09:27.000Z,3976
2022-10-24T09:10:43.000Z,3792
2022-10-24T09:11:58.000Z,4248
2022-10-24T09:13:14.000Z,5408
2022-10-24T09:14:30.000Z,5116
2022-10-24T09:15:47.000Z,5396
2022-10-24T09:17:03.000Z,4760
2022-10-24T09:18:19.000Z,4860
2022-10-24T09:19:35.000Z,4804
2022-10-24T09:20:51.000Z,5524
2022-10-24T09:22:08.000Z,6436
2022-10-24T09:23:24.000Z,6892
2022-10-24T09:24:40.000Z,6524
2022-10-24T09:25:56.000Z,6744
2022-10-24T09:27:12.000Z,6972
2022-10-24T09:28:27.000Z,5660
2022-10-24T09:29:44.000Z,4588
2022-10-24T09:31:00.000Z,4932
2022-10-24T09:32:16.000Z,6116
2022-10-24T09:33:32.000Z,5712
2022-10-24T09:34:48.000Z,17024
2022-10-24T09:36:05.000Z,6476
2022-10-24T09:37:21.000Z,12032
2022-10-24T09:38:37.000Z,7468
2022-10-24T09:39:53.000Z,6692
2022-10-24T09:41:09.000Z,16128
2022-10-24T09:42:26.000Z,7384
2022-10-24T09:43:42.000Z,7644
2022-10-24T09:44:57.000Z,10520
2022-10-24T09:46:13.000Z,8644
2022-10-24T09:47:29.000Z,8564
2022-10-24T09:48:46.000Z,19840
2022-10-24T09:50:02.000Z,23360
2022-10-24T09:51:18.000Z,8436
2022-10-24T09:52:34.000Z,10212
2022-10-24T09:53:50.000Z,29856
2022-10-24T09:55:06.000Z,7128
2022-10-24T09:56:23.000Z,5080
2022-10-24T09:57:39.000Z,3408
2022-10-24T09:58:55.000Z,2704
2022-10-24T10:00:11.000Z,2672
2022-10-24T10:01:26.000Z,3084
2022-10-24T10:02:43.000Z,3432
2022-10-24T10:03:59.000Z,3588
2022-10-24T10:05:15.000Z,3228
2022-10-24T10:06:31.000Z,4432
2022-10-24T10:07:47.000Z,4004
2022-10-24T10:09:04.000Z,3380
2022-10-24T10:10:20.000Z,3520
2022-10-24T10:11:36.000Z,4304
2022-10-24T10:12:52.000Z,5192
2022-10-24T10:14:08.000Z,6888
2022-10-24T10:15:24.000Z,7484
2022-10-24T10:16:41.000Z,7820
2022-10-24T10:17:56.000Z,7928
2022-10-24T10:19:12.000Z,9296
2022-10-24T10:20:28.000Z,11696
2022-10-24T10:21:44.000Z,12704
2022-10-24T10:23:01.000Z,12032
2022-10-24T10:24:17.000Z,10828
2022-10-24T10:25:33.000Z,8220
2022-10-24T10:26:49.000Z,6312
2022-10-24T10:28:05.000Z,6580
2022-10-24T10:29:22.000Z,6036
2022-10-24T10:30:38.000Z,5632
2022-10-24T10:31:54.000Z,4740
2022-10-24T10:33:10.000Z,4140
2022-10-24T10:34:25.000Z,4364
2022-10-24T10:35:42.000Z,6396
2022-10-24T10:36:58.000Z,8072
2022-10-24T10:38:14.000Z,34592
2022-10-24T10:39:30.000Z,15956
2022-10-24T10:40:46.000Z,20064
2022-10-24T10:42:02.000Z,30560
2022-10-24T10:43:19.000Z,32896
2022-10-24T10:44:35.000Z,33856
2022-10-24T10:45:51.000Z,33376
2022-10-24T10:47:07.000Z,32384
2022-10-24T10:48:23.000Z,28416
2022-10-24T10:49:40.000Z,15820
2022-10-24T10:50:55.000Z,23904
2022-10-24T10:52:11.000Z,33600
2022-10-24T10:53:27.000Z,34528
2022-10-24T10:54:43.000Z,33920
2022-10-24T10:56:00.000Z,34912
2022-10-24T10:57:16.000Z,38208
2022-10-24T10:58:32.000Z,12060
2022-10-24T10:59:48.000Z,12708
2022-10-24T11:01:04.000Z,16640
2022-10-24T11:02:21.000Z,10716
2022-10-24T11:03:37.000Z,8852
2022-10-24T11:04:53.000Z,10028
2022-10-24T11:06:09.000Z,9824
2022-10-24T11:07:24.000Z,9756
2022-10-24T11:08:40.000Z,9536
2022-10-24T11:09:57.000Z,9200
2022-10-24T11:11:13.000Z,9656
2022-10-24T11:12:29.000Z,10068
2022-10-24T11:13:45.000Z,9396
2022-10-24T11:15:01.000Z,8988
2022-10-24T11:16:18.000Z,8796
2022-10-24T11:17:34.000Z,12752
2022-10-24T11:18:50.000Z,12300
2022-10-24T11:20:06.000Z,14712
2022-10-24T11:21:22.000Z,13852
2022-10-24T11:22:39.000Z,11780
2022-10-24T11:23:54.000Z,10160
2022-10-24T11:25:10.000Z,10184
2022-10-24T11:26:26.000Z,9140
2022-10-24T11:27:42.000Z,9092
2022-10-24T11:28:59.000Z,8032
2022-10-24T11:30:15.000Z,7952
2022-10-24T11:31:31.000Z,11260
2022-10-24T11:32:47.000Z,9784
2022-10-24T11:34:03.000Z,9296
2022-10-24T11:35:19.000Z,11208
2022-10-24T11:36:36.000Z,11708
2022-10-24T11:37:52.000Z,12264
2022-10-24T11:39:08.000Z,10272
2022-10-24T11:40:23.000Z,9352
2022-10-24T11:41:39.000Z,5160
2022-10-24T11:42:56.000Z,5420
2022-10-24T11:44:12.000Z,5876
2022-10-24T11:45:28.000Z,7192
2022-10-24T11:46:44.000Z,10176
2022-10-24T11:48:00.000Z,8632
2022-10-24T11:49:17.000Z,7904
2022-10-24T11:50:33.000Z,7872
2022-10-24T11:51:49.000Z,7756
2022-10-24T11:53:05.000Z,6964
2022-10-24T11:54:21.000Z,8348
2022-10-24T11:55:37.000Z,8840
2022-10-24T11:56:53.000Z,8268
2022-10-24T11:58:09.000Z,7096
2022-10-24T11:59:25.000Z,6956
2022-10-24T12:00:41.000Z,7924
2022-10-24T12:01:57.000Z,10672
2022-10-24T12:03:14.000Z,14800
2022-10-24T12:04:30.000Z,11984
2022-10-24T12:05:46.000Z,19904
2022-10-24T12:07:02.000Z,23328
2022-10-24T12:08:18.000Z,15524
2022-10-24T12:09:35.000Z,15316
2022-10-24T12:10:51.000Z,15132
2022-10-24T12:12:07.000Z,13544
2022-10-24T12:13:22.000Z,11944
2022-10-24T12:14:38.000Z,9564
2022-10-24T12:15:55.000Z,10308
2022-10-24T12:17:11.000Z,11520
2022-10-24T12:18:27.000Z,10024
2022-10-24T12:19:43.000Z,10488
2022-10-24T12:20:58.000Z,11092
2022-10-24T12:22:14.000Z,10684
2022-10-24T12:23:31.000Z,11228
2022-10-24T12:24:47.000Z,9188
2022-10-24T12:26:03.000Z,21312
2022-10-24T12:27:19.000Z,18272
2022-10-24T12:28:35.000Z,13100
2022-10-24T12:29:52.000Z,18496
2022-10-24T12:31:08.000Z,21088
2022-10-24T12:32:24.000Z,13648
2022-10-24T12:33:40.000Z,13492
2022-10-24T12:34:56.000Z,9624
2022-10-24T12:36:13.000Z,9632
2022-10-24T12:37:28.000Z,14196
2022-10-24T12:38:44.000Z,14496
2022-10-24T12:40:00.000Z,11316
2022-10-24T12:41:16.000Z,14552
2022-10-24T12:42:33.000Z,8704
2022-10-24T12:43:49.000Z,15452
2022-10-24T12:45:05.000Z,12148
2022-10-24T12:46:21.000Z,12308
2022-10-24T12:47:37.000Z,8580
2022-10-24T12:48:53.000Z,9692
2022-10-24T12:50:10.000Z,8620
2022-10-24T12:51:26.000Z,16544
2022-10-24T12:52:42.000Z,14968
2022-10-24T12:53:57.000Z,16992
2022-10-24T12:55:13.000Z,17056
2022-10-24T12:56:30.000Z,9404
2022-10-24T12:57:46.000Z,11228
2022-10-24T12:59:02.000Z,10028
2022-10-24T13:00:18.000Z,29120
2022-10-24T13:01:34.000Z,24160
2022-10-24T13:02:51.000Z,24608
2022-10-24T13:04:07.000Z,12140
2022-10-24T13:05:23.000Z,11164
2022-10-24T13:06:39.000Z,25664
2022-10-24T13:07:55.000Z,24768
2022-10-24T13:09:12.000Z,24768
2022-10-24T13:10:27.000Z,23648
2022-10-24T13:11:43.000Z,23456
2022-10-24T13:12:59.000Z,20768
2022-10-24T13:14:15.000Z,18240
2022-10-24T13:15:31.000Z,16800
2022-10-24T13:16:48.000Z,16192
2022-10-24T13:18:04.000Z,16896
2022-10-24T13:19:20.000Z,17760
2022-10-24T13:20:36.000Z,17760
2022-10-24T13:21:52.000Z,16800
2022-10-24T13:23:09.000Z,15652
2022-10-24T13:24:25.000Z,15004
2022-10-24T13:25:41.000Z,13468
2022-10-24T13:26:56.896Z,10716
2022-10-24T13:28:12.000Z,12296
2022-10-24T13:29:29.000Z,16080
2022-10-24T13:30:45.000Z,15808
2022-10-24T13:32:01.000Z,15256
2022-10-24T13:33:17.000Z,15464
2022-10-24T13:34:33.000Z,14812
2022-10-24T13:35:49.000Z,13740
2022-10-24T13:37:06.000Z,13384
2022-10-24T13:38:22.000Z,12572
2022-10-24T13:39:38.000Z,12780
2022-10-24T13:40:54.000Z,13624
2022-10-24T13:42:10.000Z,14296
2022-10-24T13:43:26.000Z,14148
2022-10-24T13:44:42.000Z,13388
2022-10-24T13:45:58.000Z,12956
2022-10-24T13:47:14.000Z,12904
2022-10-24T13:48:30.000Z,12280
2022-10-24T13:49:47.000Z,12200
2022-10-24T13:51:03.000Z,11976
2022-10-24T13:52:19.000Z,9796
2022-10-24T13:53:35.000Z,9220
2022-10-24T13:54:51.000Z,8288
2022-10-24T13:56:08.000Z,4052
2022-10-24T13:57:24.000Z,3972
2022-10-24T13:58:40.000Z,4140
2022-10-24T13:59:55.000Z,4072
2022-10-24T14:01:11.000Z,5332
2022-10-24T14:02:28.208Z,5776
2022-10-24T14:03:44.000Z,6144
2022-10-24T14:05:00.000Z,5564
2022-10-24T14:06:16.000Z,4684
2022-10-24T14:07:32.000Z,4900
2022-10-24T14:08:48.000Z,6804
2022-10-24T14:10:05.000Z,10612
2022-10-24T14:11:21.000Z,16256
2022-10-24T14:12:37.000Z,15092
2022-10-24T14:13:53.000Z,13408
2022-10-24T14:15:09.000Z,11540
2022-10-24T14:16:25.000Z,6360
2022-10-24T14:17:41.000Z,5356
2022-10-24T14:18:57.000Z,3868
2022-10-24T14:20:13.000Z,3728
2022-10-24T14:21:29.000Z,3444
2022-10-24T14:22:46.000Z,4448
2022-10-24T14:24:02.000Z,3388
2022-10-24T14:25:18.000Z,3572
2022-10-24T14:26:34.000Z,3492
2022-10-24T14:27:50.000Z,3100
2022-10-24T14:29:06.000Z,2804
2022-10-24T14:30:23.000Z,3404
2022-10-24T14:31:39.000Z,3588
2022-10-24T14:32:54.000Z,3216
2022-10-24T14:34:10.000Z,2828
2022-10-24T14:35:26.000Z,2412
2022-10-24T14:36:43.000Z,2516
2022-10-24T14:37:59.000Z,2548
2022-10-24T14:39:15.000Z,2396
2022-10-24T14:40:31.000Z,1628
2022-10-24T14:41:47.000Z,1388
2022-10-24T14:43:04.000Z,1624
2022-10-24T14:44:20.000Z,1952
2022-10-24T14:45:36.000Z,1928
2022-10-24T14:46:52.000Z,2048
2022-10-24T14:48:08.000Z,2220
2022-10-24T14:49:24.000Z,2256
2022-10-24T14:50:40.000Z,2060
2022-10-24T14:51:56.000Z,1636
2022-10-24T14:53:12.000Z,1568
2022-10-24T14:54:28.000Z,1632
2022-10-24T14:55:44.000Z,1600
2022-10-24T14:57:01.000Z,1728
2022-10-24T14:58:17.000Z,1768
2022-10-24T14:59:33.000Z,1712
2022-10-24T15:00:49.000Z,1636
2022-10-24T15:02:05.000Z,1608
2022-10-24T15:03:22.000Z,1612
2022-10-24T15:04:38.000Z,1712
2022-10-24T15:05:53.000Z,1648
2022-10-24T15:07:09.000Z,1440
2022-10-24T15:08:25.000Z,1244
2022-10-24T15:09:42.000Z,1148
2022-10-24T15:10:58.000Z,1308
2022-10-24T15:12:14.000Z,1636
2022-10-24T15:13:30.000Z,2104
2022-10-24T15:14:46.000Z,2752
2022-10-24T15:16:02.000Z,3536
2022-10-24T15:17:19.000Z,3036
2022-10-24T15:18:35.000Z,2948
2022-10-24T15:19:51.000Z,2928
2022-10-24T15:21:07.000Z,3112
2022-10-24T15:22:22.000Z,3348
2022-10-24T15:23:39.000Z,3272
2022-10-24T15:24:55.000Z,3236
2022-10-24T15:26:11.000Z,2896
2022-10-24T15:27:27.000Z,2548
2022-10-24T15:28:43.000Z,2312
2022-10-24T15:30:00.000Z,2092
2022-10-24T15:31:16.000Z,1928
2022-10-24T15:32:32.000Z,1956
2022-10-24T15:33:48.000Z,2032
2022-10-24T15:35:04.000Z,1796
2022-10-24T15:36:21.000Z,1788
2022-10-24T15:37:37.000Z,1440
2022-10-24T15:38:53.000Z,1328
2022-10-24T15:40:08.000Z,1316
2022-10-24T15:41:24.000Z,1288
2022-10-24T15:42:40.000Z,1272
2022-10-24T15:43:57.000Z,1292
2022-10-24T15:45:13.000Z,1340
2022-10-24T15:46:29.000Z,1484
2022-10-24T15:47:45.000Z,1540
2022-10-24T15:49:01.000Z,1512
2022-10-24T15:50:18.000Z,1592
2022-10-24T15:51:34.000Z,1716
2022-10-24T15:52:50.000Z,1476
2022-10-24T15:54:06.000Z,1224
2022-10-24T15:55:22.000Z,1132
2022-10-24T15:56:38.000Z,1064
2022-10-24T15:57:54.000Z,984
2022-10-24T15:59:10.000Z,896
2022-10-24T16:00:26.000Z,816
2022-10-24T16:01:42.000Z,728
2022-10-24T16:02:59.000Z,628
2022-10-24T16:04:15.000Z,572
2022-10-24T16:05:31.000Z,532
2022-10-24T16:06:47.000Z,508
2022-10-24T16:08:03.000Z,488
2022-10-24T16:09:19.000Z,468
2022-10-24T16:10:36.000Z,440
2022-10-24T16:11:52.000Z,408
2022-10-24T16:13:07.000Z,376
2022-10-24T16:14:23.000Z,336
2022-10-24T16:15:39.000Z,288
2022-10-24T16:16:56.000Z,240
2022-10-24T16:18:12.000Z,208
2022-10-24T16:19:28.000Z,180
2022-10-24T16:20:44.000Z,156
2022-10-24T16:22:00.000Z,132
2022-10-24T16:23:17.000Z,116
2022-10-24T16:24:33.000Z,96
2022-10-24T16:25:49.000Z,84
2022-10-24T16:27:05.000Z,72
2022-10-24T16:28:21.000Z,60
2022-10-24T16:29:37.000Z,48
2022-10-24T16:30:53.000Z,40
2022-10-24T16:32:09.000Z,32
2022-10-24T16:33:25.000Z,28
2022-10-24T16:34:41.000Z,24
2022-10-24T16:35:56.000Z,20
2022-10-24T16:37:13.000Z,16
2022-10-24T16:38:29.000Z,16
2022-10-24T16:39:45.000Z,12
2022-10-24T16:41:01.949Z,12
2022-10-24T16:42:17.000Z,4
2022-10-24T16:43:34.000Z,8
2022-10-24T16:44:50.000Z,4
2022-10-24T16:46:06.000Z,4
2022-10-24T16:47:22.000Z,0
2022-10-24T16:48:38.000Z,4
2022-10-24T16:49:55.000Z,4
2022-10-24T16:51:11.000Z,0
2022-10-24T16:52:26.000Z,0
2022-10-24T16:53:42.000Z,0
2022-10-24T16:54:58.000Z,0
2022-10-24T16:56:15.000Z,0
2022-10-24T16:57:31.000Z,0
2022-10-24T16:58:47.000Z,0
2022-10-24T17:00:03.000Z,0
2022-10-24T17:01:19.000Z,0
2022-10-24T17:02:35.000Z,0
2022-10-24T17:03:52.000Z,0
2022-10-24T17:05:08.000Z,0
2022-10-24T17:06:24.000Z,0
2022-10-24T17:07:40.000Z,0
2022-10-24T17:08:55.000Z,0
2022-10-24T17:10:12.000Z,0
2022-10-24T17:11:28.000Z,0
2022-10-24T17:12:44.000Z,0
2022-10-24T17:14:01.101Z,0
2022-10-24T17:15:16.000Z,0
2022-10-24T17:16:33.000Z,0
2022-10-24T17:17:49.000Z,0
2022-10-24T17:19:05.000Z,0
2022-10-24T17:20:21.000Z,0
2022-10-24T17:21:37.000Z,0
2022-10-24T17:22:53.000Z,0
2022-10-24T17:24:10.000Z,0
2022-10-24T17:25:25.000Z,0
2022-10-24T17:26:41.000Z,0
2022-10-24T17:27:57.000Z,0
2022-10-24T17:29:13.000Z,0
2022-10-24T17:30:30.000Z,0
2022-10-24T17:31:46.000Z,0